createdAt,value
2018-08-06T05:46:05.309Z,999.9
2018-08-06T05:46:26.401Z,999.9
2018-08-06T05:46:47.862Z,999.9
2018-08-06T05:47:09.689Z,999.9
2018-08-06T05:47:31.262Z,999.9
2018-08-06T05:47:51.595Z,1000
2018-08-06T05:48:13.849Z,1000
2018-08-06T05:48:34.756Z,999.9
2018-08-06T05:48:55.546Z,999.9
2018-08-06T05:49:16.036Z,999.9
2018-08-06T05:49:36.673Z,999.9
2018-08-06T05:49:57.454Z,1000
2018-08-06T05:50:17.884Z,999.9
2018-08-06T05:50:38.726Z,1000
2018-08-06T05:51:00.210Z,1000
2018-08-06T05:51:21.372Z,1000
2018-08-06T05:51:42.902Z,1000
2018-08-06T05:52:05.265Z,1000
2018-08-06T05:52:25.833Z,1000
2018-08-06T05:52:47.315Z,1000
2018-08-06T05:53:07.905Z,1000
2018-08-06T05:53:28.540Z,1000
2018-08-06T05:53:50.175Z,1000
2018-08-06T05:54:12.224Z,1000
2018-08-06T05:54:33.741Z,1000
2018-08-06T05:54:54.399Z,1000
2018-08-06T05:55:15.080Z,1000
2018-08-06T05:55:35.716Z,1000
2018-08-06T05:55:56.692Z,1000
2018-08-06T05:56:17.098Z,1000.1
2018-08-06T05:56:37.317Z,1000
2018-08-06T05:56:58.585Z,1000
2018-08-06T05:57:19.839Z,1000
2018-08-06T05:57:40.218Z,1000
2018-08-06T05:58:00.649Z,1000
2018-08-06T05:58:21.063Z,1000
2018-08-06T05:58:41.620Z,1000
2018-08-06T05:59:02.749Z,1000
2018-08-06T05:59:24.665Z,1000
2018-08-06T05:59:45.024Z,1000.1
2018-08-06T06:00:06.339Z,1000
2018-08-06T06:00:26.822Z,1000.1
2018-08-06T06:00:47.845Z,1000.1
2018-08-06T06:01:08.239Z,1000
2018-08-06T06:01:28.801Z,1000
2018-08-06T06:01:49.974Z,1000.1
2018-08-06T06:02:10.576Z,1000
2018-08-06T06:02:31.673Z,1000.1
2018-08-06T06:02:52.779Z,1000.1
2018-08-06T06:03:14.215Z,1000.1
2018-08-06T06:03:34.716Z,1000.1
2018-08-06T06:03:55.169Z,1000.1
2018-08-06T06:04:16.220Z,1000.1
2018-08-06T06:04:36.353Z,1000
2018-08-06T06:04:57.777Z,1000.1
2018-08-06T06:05:18.167Z,1000.1
2018-08-06T06:05:39.165Z,1000.1
2018-08-06T06:06:00.082Z,1000.1
2018-08-06T06:06:21.120Z,1000
2018-08-06T06:06:41.372Z,1000.1
2018-08-06T06:07:01.780Z,1000.1
2018-08-06T06:07:21.873Z,1000.1
2018-08-06T06:07:42.344Z,1000.1
2018-08-06T06:08:02.814Z,1000.1
2018-08-06T06:08:23.341Z,1000.1
2018-08-06T06:08:43.691Z,1000.1
2018-08-06T06:09:04.060Z,1000.1
2018-08-06T06:09:24.354Z,1000.1
2018-08-06T06:09:44.431Z,1000.1
2018-08-06T06:10:04.828Z,1000.1
2018-08-06T06:10:25.436Z,1000.1
2018-08-06T06:10:45.820Z,1000.1
2018-08-06T06:11:06.265Z,1000.1
2018-08-06T06:11:26.535Z,1000.1
2018-08-06T06:11:48.740Z,1000.1
2018-08-06T06:12:09.172Z,1000.1
2018-08-06T06:12:30.220Z,1000.1
2018-08-06T06:12:50.863Z,1000.1
2018-08-06T06:13:12.137Z,1000.1
2018-08-06T06:13:32.531Z,1000.1
2018-08-06T06:13:52.805Z,1000.1
2018-08-06T06:14:13.132Z,1000.1
2018-08-06T06:14:33.403Z,1000.1
2018-08-06T06:14:53.683Z,1000.1
2018-08-06T06:15:13.861Z,1000.1
2018-08-06T06:15:35.136Z,1000.1
2018-08-06T06:15:55.746Z,1000.1
2018-08-06T06:16:15.961Z,1000.2
2018-08-06T06:16:36.276Z,1000.1
2018-08-06T06:16:56.492Z,1000.1
2018-08-06T06:17:16.809Z,1000.2
2018-08-06T06:17:37.135Z,1000.2
2018-08-06T06:17:58.217Z,1000.2
2018-08-06T06:18:18.517Z,1000.2
2018-08-06T06:18:38.813Z,1000.2
2018-08-06T06:19:00.199Z,1000.1
2018-08-06T06:19:20.724Z,1000.2
2018-08-06T06:19:41.031Z,1000.1
2018-08-06T06:20:02.203Z,1000.2
2018-08-06T06:20:22.651Z,1000.2
2018-08-06T06:20:43.011Z,1000.2
2018-08-06T06:21:03.397Z,1000.1
2018-08-06T06:21:23.623Z,1000.2
2018-08-06T06:21:44.527Z,1000.2
2018-08-06T06:22:04.887Z,1000.2
2018-08-06T06:22:25.047Z,1000.2
2018-08-06T06:22:46.301Z,1000.2
2018-08-06T06:23:06.550Z,1000.2
2018-08-06T06:23:26.766Z,1000.2
2018-08-06T06:23:47.195Z,1000.2
2018-08-06T06:24:08.725Z,1000.2
2018-08-06T06:24:29.545Z,1000.2
2018-08-06T06:24:49.730Z,1000.2
2018-08-06T06:25:10.001Z,1000.2
2018-08-06T06:25:30.340Z,1000.2
2018-08-06T06:25:50.726Z,1000.2
2018-08-06T06:26:10.931Z,1000.2
2018-08-06T06:26:31.337Z,1000.2
2018-08-06T06:26:52.000Z,1000.2
2018-08-06T06:27:12.341Z,1000.2
2018-08-06T06:27:32.594Z,1000.2
2018-08-06T06:27:53.711Z,1000.2
2018-08-06T06:28:14.741Z,1000.2
2018-08-06T06:28:35.208Z,1000.2
2018-08-06T06:28:56.274Z,1000.2
2018-08-06T06:29:17.327Z,1000.2
2018-08-06T06:29:38.805Z,1000.2
2018-08-06T06:30:00.728Z,1000.2
2018-08-06T06:30:22.220Z,1000.2
2018-08-06T06:30:43.101Z,1000.2
2018-08-06T06:31:03.674Z,1000.2
2018-08-06T06:31:24.500Z,1000.2
2018-08-06T06:31:45.176Z,1000.2
2018-08-06T06:32:06.445Z,1000.2
2018-08-06T06:32:27.740Z,1000.2
2018-08-06T06:32:48.753Z,1000.3
2018-08-06T06:33:09.758Z,1000.2
2018-08-06T06:33:30.024Z,1000.2
2018-08-06T06:33:51.404Z,1000.3
2018-08-06T06:34:11.761Z,1000.2
2018-08-06T06:34:32.027Z,1000.2
2018-08-06T06:34:52.243Z,1000.2
2018-08-06T06:35:12.382Z,1000.3
2018-08-06T06:35:32.793Z,1000.2
2018-08-06T06:35:53.689Z,1000.3
2018-08-06T06:36:13.967Z,1000.3
2018-08-06T06:36:34.340Z,1000.3
2018-08-06T06:36:54.682Z,1000.2
2018-08-06T06:37:15.712Z,1000.2
2018-08-06T06:37:36.740Z,1000.3
2018-08-06T06:37:57.290Z,1000.3
2018-08-06T06:38:17.611Z,1000.3
2018-08-06T06:38:38.031Z,1000.3
2018-08-06T06:38:58.631Z,1000.3
2018-08-06T06:39:19.086Z,1000.2
2018-08-06T06:39:39.434Z,1000.3
2018-08-06T06:39:59.781Z,1000.3
2018-08-06T06:40:19.988Z,1000.3
2018-08-06T06:40:40.187Z,1000.3
2018-08-06T06:41:00.455Z,1000.3
2018-08-06T06:41:20.822Z,1000.3
2018-08-06T06:41:41.449Z,1000.3
2018-08-06T06:42:01.856Z,1000.3
2018-08-06T06:42:22.294Z,1000.3
2018-08-06T06:42:42.639Z,1000.3
2018-08-06T06:43:03.009Z,1000.3
2018-08-06T06:43:23.299Z,1000.3
2018-08-06T06:43:43.613Z,1000.3
2018-08-06T06:44:03.859Z,1000.3
2018-08-06T06:44:25.838Z,1000.2
2018-08-06T06:44:46.753Z,1000.3
2018-08-06T06:45:07.011Z,1000.3
2018-08-06T06:45:27.541Z,1000.2
2018-08-06T06:45:47.818Z,1000.3
2018-08-06T06:46:08.644Z,1000.3
2018-08-06T06:46:28.879Z,1000.3
2018-08-06T06:46:49.308Z,1000.3
2018-08-06T06:47:09.609Z,1000.2
2018-08-06T06:47:30.040Z,1000.3
2018-08-06T06:47:50.385Z,1000.3
2018-08-06T06:48:10.678Z,1000.2
2018-08-06T06:48:31.010Z,1000.3
2018-08-06T06:48:51.738Z,1000.3
2018-08-06T06:49:12.481Z,1000.3
2018-08-06T06:49:32.883Z,1000.3
2018-08-06T06:49:53.157Z,1000.3
2018-08-06T06:50:14.263Z,1000.3
2018-08-06T06:50:34.560Z,1000.3
2018-08-06T06:50:54.829Z,1000.3
2018-08-06T06:51:15.030Z,1000.3
2018-08-06T06:51:36.278Z,1000.2
2018-08-06T06:51:56.618Z,1000.2
2018-08-06T06:52:16.967Z,1000.2
2018-08-06T06:52:37.151Z,1000.2
2018-08-06T06:52:57.568Z,1000.2
2018-08-06T06:53:18.211Z,1000.2
2018-08-06T06:53:38.538Z,1000.3
2018-08-06T06:53:58.816Z,1000.2
2018-08-06T06:54:19.177Z,1000.2
2018-08-06T06:54:39.650Z,1000.2
2018-08-06T06:54:59.937Z,1000.2
2018-08-06T06:55:20.179Z,1000.2
2018-08-06T06:55:40.434Z,1000.2
2018-08-06T06:56:00.629Z,1000.2
2018-08-06T06:56:20.951Z,1000.2
2018-08-06T06:56:41.195Z,1000.2
2018-08-06T06:57:02.236Z,1000.3
2018-08-06T06:57:22.480Z,1000.2
2018-08-06T06:57:42.670Z,1000.2
2018-08-06T06:58:03.015Z,1000.2
2018-08-06T06:58:23.330Z,1000.2
2018-08-06T06:58:43.510Z,1000.3
2018-08-06T06:59:03.690Z,1000.2
2018-08-06T06:59:24.046Z,1000.2
2018-08-06T06:59:44.232Z,1000.2
2018-08-06T07:00:04.653Z,1000.2
2018-08-06T07:00:24.918Z,1000.2
2018-08-06T07:00:45.324Z,1000.2
2018-08-06T07:01:05.739Z,1000.2
2018-08-06T07:01:26.176Z,1000.2
2018-08-06T07:01:46.424Z,1000.2
2018-08-06T07:02:07.682Z,1000.2
2018-08-06T07:02:28.696Z,1000.2
2018-08-06T07:02:48.898Z,1000.2
2018-08-06T07:03:09.088Z,1000.2
2018-08-06T07:03:29.319Z,1000.2
2018-08-06T07:03:50.674Z,1000.2
2018-08-06T07:04:10.850Z,1000.2
2018-08-06T07:04:30.853Z,1000.2
2018-08-06T07:04:51.046Z,1000.2
2018-08-06T07:05:11.360Z,1000.2
2018-08-06T07:05:31.717Z,1000.2
2018-08-06T07:05:51.906Z,1000.2
2018-08-06T07:06:13.098Z,1000.2
2018-08-06T07:06:33.590Z,1000.2
2018-08-06T07:06:53.632Z,1000.2
2018-08-06T07:07:14.102Z,1000.2
2018-08-06T07:07:34.269Z,1000.2
2018-08-06T07:07:54.413Z,1000.2
2018-08-06T07:08:14.719Z,1000.2
2018-08-06T07:08:34.975Z,1000.2
2018-08-06T07:08:55.185Z,1000.1
2018-08-06T07:09:15.452Z,1000.2
2018-08-06T07:09:36.630Z,1000.2
2018-08-06T07:09:56.814Z,1000.2
2018-08-06T07:10:17.118Z,1000.2
2018-08-06T07:10:37.312Z,1000.2
2018-08-06T07:10:57.578Z,1000.2
2018-08-06T07:11:18.664Z,1000.2
2018-08-06T07:11:38.874Z,1000.2
2018-08-06T07:11:59.011Z,1000.2
2018-08-06T07:12:19.173Z,1000.2
2018-08-06T07:12:39.596Z,1000.2
2018-08-06T07:13:01.048Z,1000.2
2018-08-06T07:13:21.155Z,1000.2
2018-08-06T07:13:42.246Z,1000.2
2018-08-06T07:14:02.470Z,1000.2
2018-08-06T07:14:22.779Z,1000.2
2018-08-06T07:14:43.125Z,1000.2
2018-08-06T07:15:03.584Z,1000.2
2018-08-06T07:15:24.014Z,1000.2
2018-08-06T07:15:44.674Z,1000.2
2018-08-06T07:16:04.912Z,1000.2
2018-08-06T07:16:25.225Z,1000.2
2018-08-06T07:16:45.489Z,1000.2
2018-08-06T07:17:05.736Z,1000.2
2018-08-06T07:17:25.945Z,1000.2
2018-08-06T07:17:46.191Z,1000.1
2018-08-06T07:18:06.376Z,1000.2
2018-08-06T07:18:26.808Z,1000.2
2018-08-06T07:18:47.591Z,1000.2
2018-08-06T07:19:07.841Z,1000.2
2018-08-06T07:19:28.019Z,1000.2
2018-08-06T07:19:48.332Z,1000.2
2018-08-06T07:20:08.683Z,1000.2
2018-08-06T07:20:28.931Z,1000.2
2018-08-06T07:20:49.212Z,1000.2
2018-08-06T07:21:09.691Z,1000.2
2018-08-06T07:21:29.942Z,1000.2
2018-08-06T07:21:50.220Z,1000.1
2018-08-06T07:22:10.414Z,1000.2
2018-08-06T07:22:30.589Z,1000.2
2018-08-06T07:22:51.687Z,1000.2
2018-08-06T07:23:12.007Z,1000.2
2018-08-06T07:23:32.218Z,1000.2
2018-08-06T07:23:52.421Z,1000.2
2018-08-06T07:24:12.613Z,1000.2
2018-08-06T07:24:32.820Z,1000.2
2018-08-06T07:24:52.968Z,1000.2
2018-08-06T07:25:13.238Z,1000.1
2018-08-06T07:25:33.620Z,1000.2
2018-08-06T07:25:53.886Z,1000.2
2018-08-06T07:26:14.308Z,1000.2
2018-08-06T07:26:34.557Z,1000.2
2018-08-06T07:26:54.819Z,1000.2
2018-08-06T07:27:15.048Z,1000.2
2018-08-06T07:27:36.215Z,1000.2
2018-08-06T07:27:56.491Z,1000.2
2018-08-06T07:28:16.687Z,1000.2
2018-08-06T07:28:36.954Z,1000.1
2018-08-06T07:28:57.154Z,1000.2
2018-08-06T07:29:17.357Z,1000.1
2018-08-06T07:29:37.587Z,1000.2
2018-08-06T07:29:57.893Z,1000.1
2018-08-06T07:30:18.052Z,1000.2
2018-08-06T07:30:38.293Z,1000.1
2018-08-06T07:30:58.498Z,1000.1
2018-08-06T07:31:18.751Z,1000.1
2018-08-06T07:31:38.972Z,1000.1
2018-08-06T07:31:59.331Z,1000.1
2018-08-06T07:32:19.494Z,1000.1
2018-08-06T07:32:39.756Z,1000.1
2018-08-06T07:32:59.964Z,1000.1
2018-08-06T07:33:20.226Z,1000.1
2018-08-06T07:33:40.651Z,1000.1
2018-08-06T07:34:00.806Z,1000.1
2018-08-06T07:34:20.977Z,1000.1
2018-08-06T07:34:41.240Z,1000.1
2018-08-06T07:35:01.644Z,1000.1
2018-08-06T07:35:21.844Z,1000.1
2018-08-06T07:35:42.050Z,1000.1
2018-08-06T07:36:03.267Z,1000.1
2018-08-06T07:36:23.975Z,1000.1
2018-08-06T07:36:44.222Z,1000.1
2018-08-06T07:37:04.414Z,1000.1
2018-08-06T07:37:24.640Z,1000
2018-08-06T07:37:44.866Z,1000
2018-08-06T07:38:05.081Z,1000
2018-08-06T07:38:25.355Z,1000
2018-08-06T07:38:45.553Z,1000
2018-08-06T07:39:05.742Z,1000
2018-08-06T07:39:26.026Z,1000
2018-08-06T07:39:46.195Z,1000
2018-08-06T07:40:06.460Z,1000
2018-08-06T07:40:26.664Z,1000
2018-08-06T07:40:46.897Z,1000
2018-08-06T07:41:07.228Z,1000
2018-08-06T07:41:27.489Z,1000
2018-08-06T07:41:47.636Z,1000
2018-08-06T07:42:07.806Z,1000
2018-08-06T07:42:27.980Z,1000
2018-08-06T07:42:48.215Z,1000
2018-08-06T07:43:08.453Z,1000
2018-08-06T07:43:29.283Z,1000
2018-08-06T07:43:49.661Z,1000
2018-08-06T07:44:09.909Z,1000
2018-08-06T07:44:30.030Z,1000
2018-08-06T07:44:50.219Z,1000
2018-08-06T07:45:10.392Z,1000
2018-08-06T07:45:30.719Z,1000
2018-08-06T07:45:51.006Z,1000
2018-08-06T07:46:11.195Z,1000
2018-08-06T07:46:31.440Z,1000
2018-08-06T07:46:51.654Z,1000
2018-08-06T07:47:11.934Z,1000
2018-08-06T07:47:32.094Z,1000
2018-08-06T07:47:52.311Z,1000
2018-08-06T07:48:12.726Z,1000
2018-08-06T07:48:33.188Z,1000
2018-08-06T07:48:53.467Z,1000.1
2018-08-06T07:49:13.772Z,1000
2018-08-06T07:49:34.112Z,1000.1
2018-08-06T07:49:54.820Z,1000
2018-08-06T07:50:14.984Z,1000
2018-08-06T07:50:35.173Z,1000
2018-08-06T07:50:55.541Z,1000
2018-08-06T07:51:16.115Z,1000
2018-08-06T07:51:36.336Z,1000
2018-08-06T07:51:56.553Z,1000
2018-08-06T07:52:16.939Z,1000
2018-08-06T07:52:37.210Z,999.9
2018-08-06T07:52:57.404Z,999.9
2018-08-06T07:53:17.633Z,1000
2018-08-06T07:53:37.962Z,1000
2018-08-06T07:53:58.161Z,1000
2018-08-06T07:54:19.123Z,1000
2018-08-06T07:54:39.293Z,1000
2018-08-06T07:54:59.663Z,1000
2018-08-06T07:55:19.927Z,1000
2018-08-06T07:55:40.073Z,1000
2018-08-06T07:56:00.264Z,1000
2018-08-06T07:56:20.481Z,1000
2018-08-06T07:56:40.652Z,999.9
2018-08-06T07:57:00.829Z,1000
2018-08-06T07:57:21.066Z,1000
2018-08-06T07:57:41.252Z,999.9
2018-08-06T07:58:01.510Z,1000
2018-08-06T07:58:21.764Z,1000
2018-08-06T07:58:42.025Z,1000
2018-08-06T07:59:02.174Z,1000
2018-08-06T07:59:22.348Z,999.9
2018-08-06T07:59:42.638Z,999.9
2018-08-06T08:00:03.023Z,999.9
2018-08-06T08:00:23.232Z,1000
2018-08-06T08:00:43.454Z,999.9
2018-08-06T08:01:03.658Z,999.9
2018-08-06T08:01:23.834Z,1000
2018-08-06T08:01:44.023Z,999.9
2018-08-06T08:02:04.333Z,1000
2018-08-06T08:02:24.591Z,999.9
2018-08-06T08:02:44.892Z,1000
2018-08-06T08:03:05.174Z,1000
2018-08-06T08:03:25.437Z,1000
2018-08-06T08:03:45.606Z,999.9
2018-08-06T08:04:05.849Z,999.9
2018-08-06T08:04:26.141Z,1000
2018-08-06T08:04:46.357Z,1000
2018-08-06T08:05:06.576Z,999.9
2018-08-06T08:05:26.739Z,999.9
2018-08-06T08:05:46.932Z,1000
2018-08-06T08:06:07.406Z,999.9
2018-08-06T08:06:27.660Z,999.9
2018-08-06T08:06:47.855Z,999.9
2018-08-06T08:07:08.061Z,999.9
2018-08-06T08:07:28.272Z,999.9
2018-08-06T08:07:48.474Z,999.9
2018-08-06T08:08:08.695Z,999.9
2018-08-06T08:08:28.941Z,999.9
2018-08-06T08:08:49.156Z,999.9
2018-08-06T08:09:09.424Z,999.9
2018-08-06T08:09:29.651Z,999.9
2018-08-06T08:09:49.827Z,999.9
2018-08-06T08:10:10.035Z,999.9
2018-08-06T08:10:30.245Z,999.9
2018-08-06T08:10:50.412Z,999.9
2018-08-06T08:11:10.563Z,999.9
2018-08-06T08:11:30.795Z,999.9
2018-08-06T08:11:51.012Z,999.9
2018-08-06T08:12:11.210Z,999.9
2018-08-06T08:12:31.424Z,999.9
2018-08-06T08:12:51.571Z,999.9
2018-08-06T08:13:11.718Z,999.9
2018-08-06T08:13:31.993Z,999.9
2018-08-06T08:13:52.231Z,999.9
2018-08-06T08:14:12.369Z,999.9
2018-08-06T08:14:32.679Z,999.9
2018-08-06T08:14:52.918Z,999.9
2018-08-06T08:15:13.055Z,999.9
2018-08-06T08:15:33.243Z,999.9
2018-08-06T08:15:53.518Z,999.9
2018-08-06T08:16:14.660Z,999.9
2018-08-06T08:16:34.871Z,999.9
2018-08-06T08:16:55.062Z,999.8
2018-08-06T08:17:15.339Z,999.9
2018-08-06T08:17:35.562Z,999.8
2018-08-06T08:17:55.690Z,999.9
2018-08-06T08:18:15.871Z,999.9
2018-08-06T08:18:36.111Z,999.8
2018-08-06T08:18:56.422Z,999.9
2018-08-06T08:19:16.634Z,999.9
2018-08-06T08:19:36.979Z,999.8
2018-08-06T08:19:57.349Z,999.8
2018-08-06T08:20:17.967Z,999.8
2018-08-06T08:20:38.209Z,999.8
2018-08-06T08:20:58.444Z,999.9
2018-08-06T08:21:18.640Z,999.8
2018-08-06T08:21:38.904Z,999.8
2018-08-06T08:21:59.156Z,999.8
2018-08-06T08:22:19.319Z,999.9
2018-08-06T08:22:39.518Z,999.9
2018-08-06T08:22:59.731Z,999.9
2018-08-06T08:23:19.898Z,999.8
2018-08-06T08:23:40.083Z,999.9
2018-08-06T08:24:00.252Z,999.9
2018-08-06T08:24:20.474Z,999.9
2018-08-06T08:24:40.622Z,999.9
2018-08-06T08:25:00.839Z,999.9
2018-08-06T08:25:20.955Z,999.9
2018-08-06T08:25:41.127Z,999.9
2018-08-06T08:26:01.348Z,999.8
2018-08-06T08:26:21.529Z,999.9
2018-08-06T08:26:41.728Z,999.8
2018-08-06T08:27:01.980Z,999.8
2018-08-06T08:27:22.154Z,999.9
2018-08-06T08:27:42.325Z,999.8
2018-08-06T08:28:02.501Z,999.8
2018-08-06T08:28:22.726Z,999.8
2018-08-06T08:28:42.932Z,999.8
2018-08-06T08:29:03.082Z,999.8
2018-08-06T08:29:23.299Z,999.8
2018-08-06T08:29:43.480Z,999.8
2018-08-06T08:30:03.667Z,999.8
2018-08-06T08:30:23.833Z,999.8
2018-08-06T08:30:43.998Z,999.8
2018-08-06T08:31:04.148Z,999.8
2018-08-06T08:31:24.315Z,999.8
2018-08-06T08:31:44.509Z,999.8
2018-08-06T08:32:04.708Z,999.8
2018-08-06T08:32:24.914Z,999.8
2018-08-06T08:32:45.191Z,999.8
2018-08-06T08:33:05.332Z,999.8
2018-08-06T08:33:25.508Z,999.8
2018-08-06T08:33:45.710Z,999.8
2018-08-06T08:34:05.918Z,999.8
2018-08-06T08:34:26.100Z,999.8
2018-08-06T08:34:46.305Z,999.8
2018-08-06T08:35:06.553Z,999.8
2018-08-06T08:35:26.797Z,999.7
2018-08-06T08:35:47.059Z,999.8
2018-08-06T08:36:07.294Z,999.8
2018-08-06T08:36:27.464Z,999.7
2018-08-06T08:36:47.708Z,999.8
2018-08-06T08:37:07.904Z,999.8
2018-08-06T08:37:28.103Z,999.8
2018-08-06T08:37:48.299Z,999.8
2018-08-06T08:38:08.503Z,999.8
2018-08-06T08:38:28.720Z,999.8
2018-08-06T08:38:48.950Z,999.8
2018-08-06T08:39:09.325Z,999.8
2018-08-06T08:39:29.623Z,999.8
2018-08-06T08:39:49.791Z,999.8
2018-08-06T08:40:10.002Z,999.8
2018-08-06T08:40:30.176Z,999.8
2018-08-06T08:40:50.384Z,999.8
2018-08-06T08:41:10.645Z,999.8
2018-08-06T08:41:30.887Z,999.8
2018-08-06T08:41:51.103Z,999.8
2018-08-06T08:42:11.238Z,999.9
2018-08-06T08:42:31.451Z,999.8
2018-08-06T08:42:51.599Z,999.8
2018-08-06T08:43:11.878Z,999.8
2018-08-06T08:43:32.124Z,999.8
2018-08-06T08:43:52.341Z,999.8
2018-08-06T08:44:12.583Z,999.8
2018-08-06T08:44:32.783Z,999.8
2018-08-06T08:44:52.967Z,999.9
2018-08-06T08:45:13.226Z,999.8
2018-08-06T08:45:33.442Z,999.9
2018-08-06T08:45:53.821Z,999.8
2018-08-06T08:46:14.419Z,999.9
2018-08-06T08:46:34.624Z,999.9
2018-08-06T08:46:54.829Z,999.9
2018-08-06T08:47:15.199Z,999.9
2018-08-06T08:47:35.593Z,999.9
2018-08-06T08:47:55.752Z,999.9
2018-08-06T08:48:15.978Z,999.9
2018-08-06T08:48:36.390Z,999.8
2018-08-06T08:48:56.700Z,999.9
2018-08-06T08:49:16.870Z,999.9
2018-08-06T08:49:37.048Z,999.9
2018-08-06T08:49:57.300Z,999.9
2018-08-06T08:50:17.489Z,999.9
2018-08-06T08:50:37.972Z,999.8
2018-08-06T08:50:58.218Z,999.9
2018-08-06T08:51:18.465Z,999.8
2018-08-06T08:51:38.640Z,999.9
2018-08-06T08:51:58.829Z,999.9
2018-08-06T08:52:19.111Z,999.9
2018-08-06T08:52:39.362Z,999.9
2018-08-06T08:52:59.574Z,999.9
2018-08-06T08:53:19.720Z,999.9
2018-08-06T08:53:39.917Z,999.8
2018-08-06T08:54:00.095Z,999.8
2018-08-06T08:54:20.277Z,999.8
2018-08-06T08:54:40.439Z,999.8
2018-08-06T08:55:00.657Z,999.8
2018-08-06T08:55:20.887Z,999.8
2018-08-06T08:55:41.206Z,999.8
2018-08-06T08:56:01.574Z,999.8
2018-08-06T08:56:21.827Z,999.8
2018-08-06T08:56:41.994Z,999.8
2018-08-06T08:57:02.218Z,999.8
2018-08-06T08:57:22.471Z,999.8
2018-08-06T08:57:42.655Z,999.7
2018-08-06T08:58:02.857Z,999.8
2018-08-06T08:58:23.049Z,999.7
2018-08-06T08:58:43.268Z,999.8
2018-08-06T08:59:03.419Z,999.7
2018-08-06T08:59:23.630Z,999.7
2018-08-06T08:59:43.808Z,999.8
2018-08-06T09:00:03.965Z,999.8
2018-08-06T09:00:24.150Z,999.7
2018-08-06T09:00:44.358Z,999.7
2018-08-06T09:01:04.533Z,999.7
2018-08-06T09:01:24.703Z,999.7
2018-08-06T09:01:44.855Z,999.7
2018-08-06T09:02:05.003Z,999.7
2018-08-06T09:02:25.148Z,999.8
2018-08-06T09:02:45.303Z,999.7
2018-08-06T09:03:05.513Z,999.7
2018-08-06T09:03:25.684Z,999.7
2018-08-06T09:03:45.885Z,999.7
2018-08-06T09:04:06.063Z,999.7
2018-08-06T09:04:26.224Z,999.7
2018-08-06T09:04:46.425Z,999.7
2018-08-06T09:05:06.615Z,999.7
2018-08-06T09:05:26.797Z,999.7
2018-08-06T09:05:46.971Z,999.7
2018-08-06T09:06:07.160Z,999.7
2018-08-06T09:06:27.330Z,999.7
2018-08-06T09:06:47.488Z,999.7
2018-08-06T09:07:07.628Z,999.7
2018-08-06T09:07:27.924Z,999.7
2018-08-06T09:07:47.988Z,999.7
2018-08-06T09:08:08.229Z,999.7
2018-08-06T09:08:28.383Z,999.7
2018-08-06T09:08:48.577Z,999.7
2018-08-06T09:09:08.764Z,999.7
2018-08-06T09:09:28.950Z,999.7
2018-08-06T09:09:49.102Z,999.7
2018-08-06T09:10:09.322Z,999.7
2018-08-06T09:10:29.489Z,999.7
2018-08-06T09:10:49.712Z,999.6
2018-08-06T09:11:09.915Z,999.7
2018-08-06T09:11:30.081Z,999.6
2018-08-06T09:11:50.282Z,999.6
2018-08-06T09:12:10.436Z,999.6
2018-08-06T09:12:30.624Z,999.6
2018-08-06T09:12:50.820Z,999.6
2018-08-06T09:13:11.008Z,999.6
2018-08-06T09:13:31.284Z,999.6
2018-08-06T09:13:51.451Z,999.6
2018-08-06T09:14:11.845Z,999.6
2018-08-06T09:14:31.963Z,999.6
2018-08-06T09:14:52.213Z,999.6
2018-08-06T09:15:12.390Z,999.6
2018-08-06T09:15:32.565Z,999.6
2018-08-06T09:15:52.767Z,999.6
2018-08-06T09:16:12.949Z,999.6
2018-08-06T09:16:33.149Z,999.6
2018-08-06T09:16:53.341Z,999.5
2018-08-06T09:17:13.499Z,999.6
2018-08-06T09:17:33.667Z,999.5
2018-08-06T09:17:53.816Z,999.6
2018-08-06T09:18:14.002Z,999.6
2018-08-06T09:18:34.198Z,999.6
2018-08-06T09:18:54.333Z,999.6
2018-08-06T09:19:14.478Z,999.5
2018-08-06T09:19:34.658Z,999.5
2018-08-06T09:19:54.816Z,999.5
2018-08-06T09:20:14.986Z,999.5
2018-08-06T09:20:35.132Z,999.5
2018-08-06T09:20:55.339Z,999.5
2018-08-06T09:21:15.722Z,999.5
2018-08-06T09:21:35.779Z,999.5
2018-08-06T09:21:55.959Z,999.5
2018-08-06T09:22:16.145Z,999.5
2018-08-06T09:22:36.415Z,999.5
2018-08-06T09:22:56.609Z,999.5
2018-08-06T09:23:16.773Z,999.5
2018-08-06T09:23:36.962Z,999.5
2018-08-06T09:23:57.157Z,999.5
2018-08-06T09:24:17.330Z,999.5
2018-08-06T09:24:37.578Z,999.5
2018-08-06T09:24:57.839Z,999.5
2018-08-06T09:25:18.124Z,999.5
2018-08-06T09:25:38.256Z,999.5
2018-08-06T09:25:58.384Z,999.5
2018-08-06T09:26:18.559Z,999.4
2018-08-06T09:26:38.798Z,999.4
2018-08-06T09:26:59.427Z,999.4
2018-08-06T09:27:19.704Z,999.5
2018-08-06T09:27:39.940Z,999.4
2018-08-06T09:28:00.139Z,999.4
2018-08-06T09:28:20.294Z,999.4
2018-08-06T09:28:40.519Z,999.4
2018-08-06T09:29:00.849Z,999.5
2018-08-06T09:29:21.043Z,999.4
2018-08-06T09:29:41.276Z,999.4
2018-08-06T09:30:01.483Z,999.4
2018-08-06T09:30:21.728Z,999.4
2018-08-06T09:30:41.894Z,999.5
2018-08-06T09:31:02.170Z,999.4
2018-08-06T09:31:22.372Z,999.4
2018-08-06T09:31:42.619Z,999.4
2018-08-06T09:32:02.924Z,999.4
2018-08-06T09:32:23.155Z,999.4
2018-08-06T09:32:43.346Z,999.4
2018-08-06T09:33:03.510Z,999.4
2018-08-06T09:33:23.730Z,999.4
2018-08-06T09:33:43.905Z,999.4
2018-08-06T09:34:04.230Z,999.5
2018-08-06T09:34:24.239Z,999.5
2018-08-06T09:34:44.438Z,999.5
2018-08-06T09:35:04.590Z,999.5
2018-08-06T09:35:24.754Z,999.4
2018-08-06T09:35:44.925Z,999.4
2018-08-06T09:36:05.083Z,999.4
2018-08-06T09:36:25.249Z,999.5
2018-08-06T09:36:45.421Z,999.4
2018-08-06T09:37:05.640Z,999.4
2018-08-06T09:37:25.751Z,999.4
2018-08-06T09:37:45.912Z,999.4
2018-08-06T09:38:06.054Z,999.4
2018-08-06T09:38:26.201Z,999.4
2018-08-06T09:38:46.340Z,999.4
2018-08-06T09:39:06.516Z,999.4
2018-08-06T09:39:26.656Z,999.4
2018-08-06T09:39:46.810Z,999.4
2018-08-06T09:40:06.954Z,999.4
2018-08-06T09:40:27.194Z,999.4
2018-08-06T09:40:47.472Z,999.4
2018-08-06T09:41:07.621Z,999.4
2018-08-06T09:41:27.776Z,999.4
2018-08-06T09:41:47.913Z,999.4
2018-08-06T09:42:08.067Z,999.4
2018-08-06T09:42:28.199Z,999.4
2018-08-06T09:42:48.367Z,999.4
2018-08-06T09:43:08.537Z,999.4
2018-08-06T09:43:28.761Z,999.4
2018-08-06T09:43:48.898Z,999.4
2018-08-06T09:44:09.031Z,999.4
2018-08-06T09:44:29.235Z,999.4
2018-08-06T09:44:49.387Z,999.4
2018-08-06T09:45:09.534Z,999.4
2018-08-06T09:45:29.691Z,999.4
2018-08-06T09:45:49.844Z,999.4
2018-08-06T09:46:09.984Z,999.4
2018-08-06T09:46:30.135Z,999.4
2018-08-06T09:46:50.304Z,999.3
2018-08-06T09:47:10.450Z,999.4
2018-08-06T09:47:30.613Z,999.3
2018-08-06T09:47:50.778Z,999.3
2018-08-06T09:48:10.984Z,999.3
2018-08-06T09:48:31.145Z,999.3
2018-08-06T09:48:51.371Z,999.4
2018-08-06T09:49:11.562Z,999.3
2018-08-06T09:49:31.722Z,999.3
2018-08-06T09:49:51.881Z,999.4
2018-08-06T09:50:12.032Z,999.3
2018-08-06T09:50:32.179Z,999.3
2018-08-06T09:50:52.347Z,999.3
2018-08-06T09:51:12.537Z,999.3
2018-08-06T09:51:32.726Z,999.3
2018-08-06T09:51:52.899Z,999.3
2018-08-06T09:52:13.101Z,999.3
2018-08-06T09:52:33.239Z,999.3
2018-08-06T09:52:53.397Z,999.3
2018-08-06T09:53:13.559Z,999.3
2018-08-06T09:53:33.725Z,999.2
2018-08-06T09:53:53.884Z,999.2
2018-08-06T09:54:14.028Z,999.2
2018-08-06T09:54:34.184Z,999.3
2018-08-06T09:54:54.399Z,999.2
2018-08-06T09:55:14.576Z,999.2
2018-08-06T09:55:34.785Z,999.2
2018-08-06T09:55:54.940Z,999.2
2018-08-06T09:56:15.083Z,999.2
2018-08-06T09:56:35.286Z,999.2
2018-08-06T09:56:55.421Z,999.2
2018-08-06T09:57:15.630Z,999.2
2018-08-06T09:57:35.765Z,999.2
2018-08-06T09:57:55.929Z,999.2
2018-08-06T09:58:16.099Z,999.2
2018-08-06T09:58:36.256Z,999.2
2018-08-06T09:58:56.440Z,999.2
2018-08-06T09:59:16.677Z,999.2
2018-08-06T09:59:36.822Z,999.2
2018-08-06T09:59:56.975Z,999.2
2018-08-06T10:00:17.113Z,999.2
2018-08-06T10:00:37.267Z,999.2
2018-08-06T10:00:57.425Z,999.2
2018-08-06T10:01:17.611Z,999.2
2018-08-06T10:01:37.762Z,999.2
2018-08-06T10:01:57.921Z,999.2
2018-08-06T10:02:18.089Z,999.3
2018-08-06T10:02:38.257Z,999.2
2018-08-06T10:02:58.392Z,999.2
2018-08-06T10:03:18.528Z,999.2
2018-08-06T10:03:38.691Z,999.2
2018-08-06T10:03:58.878Z,999.2
2018-08-06T10:04:19.055Z,999.2
2018-08-06T10:04:39.207Z,999.2
2018-08-06T10:04:59.351Z,999.2
2018-08-06T10:05:19.520Z,999.3
2018-08-06T10:05:39.940Z,999.2
2018-08-06T10:06:00.389Z,999.2